Time;durP1;ratioP1;P1;durP2;ratioP2;P2;SDS_P1;SDS_P2;PMS_P1;PMS_P2;Temp;Humidity;BMP_temperature;BMP_pressure;BME280_temperature;BME280_humidity;BME280_pressure;Samples;Min_cycle;Max_cycle;Signal;HPM_P1;HPM_P2
2020/12/19 00:01:30;;;;;;;5.60;4.88;;;12.50;99.90;;;;;;5073990;28;20190;-82
2020/12/19 00:03:57;;;;;;;5.82;5.13;;;12.50;99.90;;;;;;5074087;28;20202;-82
2020/12/19 00:06:23;;;;;;;4.57;4.18;;;12.50;99.90;;;;;;5073935;28;20226;-82
2020/12/19 00:08:50;;;;;;;6.93;5.05;;;12.50;99.90;;;;;;5073980;28;20198;-82
2020/12/19 00:11:16;;;;;;;4.15;3.78;;;12.40;99.90;;;;;;5073762;28;20256;-82
2020/12/19 00:13:43;;;;;;;5.85;5.35;;;12.30;99.90;;;;;;5073966;28;20225;-82
2020/12/19 00:16:13;;;;;;;5.40;4.90;;;12.40;99.90;;;;;;5072883;28;20205;-82
2020/12/19 00:18:39;;;;;;;4.88;4.40;;;12.30;99.90;;;;;;5073742;28;20190;-82
2020/12/19 00:21:05;;;;;;;4.93;4.38;;;12.40;99.90;;;;;;5073788;28;20232;-82
2020/12/19 00:23:31;;;;;;;4.50;4.07;;;12.20;99.90;;;;;;5073844;28;20199;-81
2020/12/19 00:25:59;;;;;;;6.03;3.97;;;12.30;99.90;;;;;;5073654;28;20575;-82
2020/12/19 00:28:25;;;;;;;4.47;4.07;;;12.20;99.90;;;;;;5073662;28;20202;-82
2020/12/19 00:30:51;;;;;;;6.43;3.60;;;12.20;99.90;;;;;;5073602;28;20198;-82
2020/12/19 00:33:17;;;;;;;5.50;4.18;;;12.20;99.90;;;;;;5073265;28;20213;-82
2020/12/19 00:35:43;;;;;;;4.75;4.35;;;12.30;99.90;;;;;;5073707;28;20660;-82
2020/12/19 00:38:10;;;;;;;4.38;3.67;;;12.40;99.90;;;;;;5073490;28;20198;-81
2020/12/19 00:40:36;;;;;;;3.33;3.03;;;12.40;99.90;;;;;;5073438;28;20199;-82
2020/12/19 00:43:03;;;;;;;4.40;3.88;;;12.20;99.90;;;;;;5073471;28;20221;-81
2020/12/19 00:45:30;;;;;;;5.28;4.20;;;12.20;99.90;;;;;;5073457;28;20198;-82
2020/12/19 00:47:56;;;;;;;4.32;3.92;;;12.30;99.90;;;;;;5073272;28;20259;-82
2020/12/19 00:50:22;;;;;;;3.90;3.60;;;12.20;99.90;;;;;;5073238;28;20194;-81
2020/12/19 00:52:48;;;;;;;9.00;4.13;;;12.30;99.90;;;;;;5073380;28;20190;-82
2020/12/19 00:55:15;;;;;;;4.68;4.28;;;12.40;99.90;;;;;;5073404;28;20194;-82
2020/12/19 00:57:41;;;;;;;3.97;3.60;;;12.30;99.90;;;;;;5073110;28;20685;-82
2020/12/19 01:00:09;;;;;;;4.40;4.00;;;12.30;99.90;;;;;;5073176;28;20682;-82
2020/12/19 01:02:36;;;;;;;3.90;3.47;;;12.40;99.90;;;;;;5073179;28;20194;-81
2020/12/19 01:05:03;;;;;;;5.20;4.28;;;12.40;99.90;;;;;;5073164;28;20237;-82
2020/12/19 01:07:30;;;;;;;4.07;3.67;;;12.40;99.90;;;;;;5073097;28;20229;-81
2020/12/19 01:09:57;;;;;;;4.80;4.32;;;12.30;99.90;;;;;;5073239;28;20204;-82
2020/12/19 01:12:23;;;;;;;3.83;3.53;;;12.40;99.90;;;;;;5072944;28;20689;-82
2020/12/19 01:14:49;;;;;;;4.18;3.72;;;12.40;99.90;;;;;;5073219;28;20244;-82
2020/12/19 01:17:16;;;;;;;4.43;4.03;;;12.40;99.90;;;;;;5073147;28;20568;-81
2020/12/19 01:19:42;;;;;;;4.45;3.20;;;12.50;99.90;;;;;;5073010;28;20190;-82
2020/12/19 01:22:09;;;;;;;3.78;3.42;;;12.40;99.90;;;;;;5073159;28;20236;-82
2020/12/19 01:24:35;;;;;;;4.15;3.75;;;12.40;99.90;;;;;;5073071;28;20198;-81
2020/12/19 01:27:01;;;;;;;4.20;3.80;;;12.40;99.90;;;;;;5074895;28;20222;-81
2020/12/19 01:29:28;;;;;;;4.15;3.22;;;12.30;99.90;;;;;;5077142;28;20738;-82
2020/12/19 01:31:54;;;;;;;3.40;3.10;;;12.40;99.90;;;;;;5076908;28;20244;-82
2020/12/19 01:34:21;;;;;;;5.25;3.55;;;12.50;99.90;;;;;;5077096;28;20202;-81
2020/12/19 01:36:47;;;;;;;4.30;3.75;;;12.50;99.90;;;;;;5077189;28;20256;-82
2020/12/19 01:39:13;;;;;;;5.60;4.40;;;12.50;99.90;;;;;;5076811;28;20190;-82
2020/12/19 01:41:40;;;;;;;5.82;4.47;;;12.60;99.90;;;;;;5076616;28;20267;-81
2020/12/19 01:44:06;;;;;;;4.40;4.00;;;12.60;99.90;;;;;;5076815;28;20198;-82
2020/12/19 01:46:53;;;;;;;4.10;3.75;;;12.60;99.90;;;;;;5076723;28;20222;-81
2020/12/19 01:49:20;;;;;;;4.28;3.88;;;12.50;99.90;;;;;;5076862;28;20550;-82
2020/12/19 01:51:49;;;;;;;4.35;3.95;;;12.50;99.90;;;;;;5076597;28;20200;-82
2020/12/19 01:54:16;;;;;;;4.57;4.18;;;12.40;99.90;;;;;;5076530;28;20213;-82
2020/12/19 01:56:51;;;;;;;5.00;4.50;;;12.50;99.90;;;;;;5076072;28;20226;-82
2020/12/19 01:59:18;;;;;;;4.70;4.30;;;12.40;99.90;;;;;;5076489;28;20200;-82
2020/12/19 02:01:45;;;;;;;5.07;4.57;;;12.40;99.90;;;;;;5076344;28;20199;-82
2020/12/19 02:04:12;;;;;;;5.10;4.60;;;12.50;99.90;;;;;;5076412;28;20263;-82
2020/12/19 02:06:39;;;;;;;4.40;4.00;;;12.40;99.90;;;;;;5076176;28;20218;-82
2020/12/19 02:09:08;;;;;;;5.68;4.15;;;12.40;99.90;;;;;;5076269;28;20201;-82
2020/12/19 02:11:34;;;;;;;5.03;4.18;;;12.50;99.90;;;;;;5076117;28;20225;-81
2020/12/19 02:14:01;;;;;;;5.20;4.55;;;12.40;99.90;;;;;;5076062;28;20198;-82
2020/12/19 02:16:27;;;;;;;4.90;4.50;;;12.40;99.90;;;;;;5076101;28;20213;-82
2020/12/19 02:18:53;;;;;;;7.22;3.80;;;12.50;99.90;;;;;;5076159;28;20676;-81
2020/12/19 02:21:19;;;;;;;4.72;4.32;;;12.50;99.90;;;;;;5076297;28;20198;-82
2020/12/19 02:23:47;;;;;;;5.10;4.57;;;12.60;99.90;;;;;;5076002;28;20606;-82
2020/12/19 02:26:13;;;;;;;8.60;4.70;;;12.70;99.90;;;;;;5075948;28;20210;-82
2020/12/19 02:28:39;;;;;;;8.40;4.93;;;12.70;99.90;;;;;;5075792;28;20198;-81
2020/12/19 02:31:05;;;;;;;4.30;3.90;;;12.70;99.90;;;;;;5075891;28;20220;-82
2020/12/19 02:33:32;;;;;;;5.93;5.38;;;12.60;99.90;;;;;;5075710;28;20206;-82
2020/12/19 02:35:58;;;;;;;5.45;4.60;;;12.60;99.90;;;;;;5075906;28;20195;-82
2020/12/19 02:38:24;;;;;;;4.65;4.25;;;12.50;99.90;;;;;;5074851;28;20536;-82
2020/12/19 02:40:51;;;;;;;11.60;5.30;;;12.60;99.90;;;;;;5075669;28;20201;-82
2020/12/19 02:43:17;;;;;;;4.22;3.83;;;12.60;99.90;;;;;;5075440;28;20218;-82
2020/12/19 02:45:43;;;;;;;4.60;4.20;;;12.60;99.90;;;;;;5075534;28;20604;-82
2020/12/19 02:48:10;;;;;;;8.43;5.10;;;12.60;99.90;;;;;;5075491;28;20229;-82
2020/12/19 02:50:36;;;;;;;5.25;4.75;;;12.60;99.90;;;;;;5075558;28;20194;-82
2020/12/19 02:53:02;;;;;;;7.32;5.05;;;12.60;99.90;;;;;;5075307;28;20224;-82
2020/12/19 02:55:28;;;;;;;6.05;5.40;;;12.60;99.90;;;;;;5075407;28;20384;-82
2020/12/19 02:57:55;;;;;;;5.20;4.70;;;12.70;99.90;;;;;;5075113;28;20227;-82
2020/12/19 03:00:21;;;;;;;6.30;4.85;;;12.70;99.90;;;;;;5075461;28;20205;-82
2020/12/19 03:02:47;;;;;;;5.13;4.10;;;12.60;99.90;;;;;;5075315;28;20557;-82
2020/12/19 03:05:14;;;;;;;6.05;4.88;;;12.60;99.90;;;;;;5075289;28;20194;-82
2020/12/19 03:07:40;;;;;;;6.13;4.90;;;12.70;99.90;;;;;;5075146;28;20222;-82
2020/12/19 03:10:06;;;;;;;6.93;4.68;;;12.60;99.90;;;;;;5075324;28;20194;-82
2020/12/19 03:12:32;;;;;;;5.80;4.65;;;12.60;99.90;;;;;;5075120;28;20215;-82
2020/12/19 03:14:59;;;;;;;5.40;4.68;;;12.70;99.90;;;;;;5074981;28;20201;-82
2020/12/19 03:17:25;;;;;;;5.55;4.95;;;12.70;99.90;;;;;;5074983;28;20201;-82
2020/12/19 03:19:52;;;;;;;8.27;5.32;;;12.80;99.90;;;;;;5074887;28;20560;-82
2020/12/19 03:22:18;;;;;;;5.68;4.93;;;12.80;99.90;;;;;;5074915;28;20198;-82
2020/12/19 03:24:44;;;;;;;5.32;4.80;;;12.80;99.90;;;;;;5074584;28;20201;-82
2020/12/19 03:27:10;;;;;;;5.65;5.13;;;12.70;99.90;;;;;;5074701;28;20230;-82
2020/12/19 03:29:36;;;;;;;5.30;4.60;;;12.80;99.90;;;;;;5074673;28;20195;-82
2020/12/19 03:32:03;;;;;;;5.15;4.65;;;12.80;99.90;;;;;;5074715;28;20197;-82
2020/12/19 03:34:30;;;;;;;5.32;4.82;;;12.80;99.90;;;;;;5074923;28;20194;-82
2020/12/19 03:36:56;;;;;;;8.57;4.85;;;12.60;99.90;;;;;;5074746;28;20195;-82
2020/12/19 03:39:22;;;;;;;5.30;4.90;;;12.70;99.90;;;;;;5074498;28;20198;-82
2020/12/19 03:41:48;;;;;;;5.97;4.82;;;12.70;99.90;;;;;;5074238;28;20218;-82
2020/12/19 03:44:14;;;;;;;6.18;5.05;;;12.70;99.90;;;;;;5074389;28;20672;-82
2020/12/19 03:46:40;;;;;;;5.55;4.95;;;12.60;99.90;;;;;;5074480;28;20218;-82
2020/12/19 03:49:08;;;;;;;5.25;4.75;;;12.50;99.90;;;;;;5074371;28;20633;-81
2020/12/19 03:51:34;;;;;;;5.68;5.18;;;12.50;99.90;;;;;;5074313;28;20546;-81
2020/12/19 03:54:00;;;;;;;5.68;5.07;;;12.60;99.90;;;;;;5073998;28;20206;-82
2020/12/19 03:56:26;;;;;;;6.15;5.35;;;12.60;99.90;;;;;;5074043;28;20715;-82
2020/12/19 03:58:53;;;;;;;7.57;5.60;;;12.50;99.90;;;;;;5074186;28;20190;-82
2020/12/19 04:01:19;;;;;;;7.82;6.03;;;12.50;99.90;;;;;;5074086;28;20548;-82
2020/12/19 04:03:45;;;;;;;5.03;4.57;;;12.60;99.90;;;;;;5074033;28;20281;-82
2020/12/19 04:06:12;;;;;;;6.78;5.20;;;12.50;99.90;;;;;;5073991;28;20239;-82
2020/12/19 04:08:38;;;;;;;6.00;5.07;;;12.50;99.90;;;;;;5074130;28;20556;-82
2020/12/19 04:11:06;;;;;;;6.10;5.50;;;12.40;99.90;;;;;;5073750;28;20198;-82
2020/12/19 04:13:33;;;;;;;5.95;5.38;;;12.60;99.90;;;;;;5074084;28;20202;-82
2020/12/19 04:15:59;;;;;;;5.80;5.25;;;12.40;99.90;;;;;;5073898;28;20202;-82
2020/12/19 04:18:26;;;;;;;6.15;5.13;;;12.40;99.90;;;;;;5073680;28;20205;-82
2020/12/19 04:20:52;;;;;;;7.55;5.63;;;12.60;99.90;;;;;;5073839;28;20653;-82
2020/12/19 04:23:19;;;;;;;5.88;4.95;;;12.60;99.90;;;;;;5073774;28;20198;-82
2020/12/19 04:25:45;;;;;;;7.13;6.15;;;12.60;99.90;;;;;;5073753;28;20248;-82
2020/12/19 04:28:11;;;;;;;6.40;5.80;;;12.70;99.90;;;;;;5073766;28;20611;-82
2020/12/19 04:30:38;;;;;;;6.30;5.70;;;12.60;99.90;;;;;;5073822;28;20660;-82
2020/12/19 04:33:04;;;;;;;8.82;6.13;;;12.50;99.90;;;;;;5073687;28;20202;-82
2020/12/19 04:35:30;;;;;;;6.80;5.85;;;12.50;99.90;;;;;;5073482;28;20549;-82
2020/12/19 04:37:57;;;;;;;5.90;5.40;;;12.50;99.90;;;;;;5073522;28;20221;-82
2020/12/19 04:40:24;;;;;;;6.05;5.40;;;12.40;99.90;;;;;;5073762;28;20198;-82
2020/12/19 04:42:50;;;;;;;7.65;6.68;;;12.40;99.90;;;;;;5073403;28;20222;-82
2020/12/19 04:45:17;;;;;;;6.63;5.90;;;12.50;99.90;;;;;;5073383;28;20251;-82
2020/12/19 04:47:43;;;;;;;6.60;5.93;;;12.50;99.90;;;;;;5073427;28;20221;-81
2020/12/19 04:50:09;;;;;;;6.63;5.97;;;12.60;99.90;;;;;;5073379;28;20194;-81
2020/12/19 04:52:36;;;;;;;6.63;6.03;;;12.50;99.90;;;;;;5073544;28;20198;-81
2020/12/19 04:55:02;;;;;;;7.32;5.65;;;12.50;99.90;;;;;;5073354;28;20661;-82
2020/12/19 04:57:29;;;;;;;7.45;6.65;;;12.50;99.90;;;;;;5073070;28;20222;-82
2020/12/19 04:59:55;;;;;;;8.70;6.25;;;12.40;99.90;;;;;;5073467;28;20240;-82
2020/12/19 05:02:22;;;;;;;7.68;6.35;;;12.40;99.90;;;;;;5072678;28;20201;-82
2020/12/19 05:04:50;;;;;;;8.13;7.03;;;12.30;99.90;;;;;;5072910;28;20202;-81
2020/12/19 05:07:16;;;;;;;6.10;5.50;;;12.30;99.90;;;;;;5073104;28;20230;-82
2020/12/19 05:09:44;;;;;;;7.18;6.03;;;12.30;99.90;;;;;;5073336;28;20190;-82
2020/12/19 05:12:12;;;;;;;7.72;6.50;;;12.40;99.90;;;;;;5072970;28;20758;-82
2020/12/19 05:14:40;;;;;;;7.07;6.38;;;12.40;99.90;;;;;;5072888;28;20210;-82
2020/12/19 05:17:06;;;;;;;6.90;6.10;;;12.40;99.90;;;;;;5073135;28;20202;-82
2020/12/19 05:19:33;;;;;;;8.25;6.60;;;12.50;99.90;;;;;;5073057;28;20198;-82
2020/12/19 05:21:59;;;;;;;6.65;6.05;;;12.40;99.90;;;;;;5073175;28;20602;-81
2020/12/19 05:24:28;;;;;;;7.60;6.15;;;12.40;99.90;;;;;;5073093;28;20569;-82
2020/12/19 05:26:55;;;;;;;7.72;6.93;;;12.40;99.90;;;;;;5072988;28;20263;-82
2020/12/19 05:29:21;;;;;;;6.90;6.20;;;12.40;99.90;;;;;;5073039;28;20205;-82
2020/12/19 05:31:55;;;;;;;7.28;5.97;;;12.50;99.90;;;;;;5072983;28;20197;-82
2020/12/19 05:34:22;;;;;;;6.80;6.20;;;12.50;99.90;;;;;;5073162;28;20213;-81
2020/12/19 05:36:50;;;;;;;7.35;6.07;;;12.40;99.90;;;;;;5072809;28;20205;-82
2020/12/19 05:39:16;;;;;;;7.70;6.57;;;12.60;99.90;;;;;;5072696;28;20198;-82
2020/12/19 05:41:43;;;;;;;9.07;6.55;;;12.60;99.90;;;;;;5072703;28;20214;-82
2020/12/19 05:44:10;;;;;;;6.07;5.18;;;12.50;99.90;;;;;;5072904;28;20249;-81
2020/12/19 05:46:38;;;;;;;8.70;6.85;;;12.60;99.90;;;;;;5072613;28;20203;-82
2020/12/19 05:49:07;;;;;;;7.63;7.00;;;12.50;99.90;;;;;;5072839;28;20190;-81
2020/12/19 05:51:35;;;;;;;6.13;5.53;;;12.50;99.90;;;;;;5072599;28;20198;-82
2020/12/19 05:54:03;;;;;;;6.97;6.28;;;12.30;99.90;;;;;;5072886;28;20195;-82
2020/12/19 05:56:33;;;;;;;7.45;6.70;;;12.30;99.90;;;;;;5072699;28;20268;-82
2020/12/19 05:59:02;;;;;;;11.48;6.85;;;12.30;99.90;;;;;;5072564;28;20194;-82
2020/12/19 06:01:29;;;;;;;10.50;6.35;;;12.40;99.90;;;;;;5072686;28;20190;-82
2020/12/19 06:03:56;;;;;;;7.50;6.80;;;12.40;99.90;;;;;;5072755;28;20202;-81
2020/12/19 06:06:24;;;;;;;6.32;5.72;;;12.30;99.90;;;;;;5072661;28;20198;-82
2020/12/19 06:08:52;;;;;;;6.22;5.68;;;12.50;99.90;;;;;;5072378;28;20226;-81
2020/12/19 06:11:22;;;;;;;9.82;7.53;;;12.40;99.90;;;;;;5072524;28;20697;-82
2020/12/19 06:13:52;;;;;;;7.00;6.40;;;12.40;99.90;;;;;;5073968;28;20587;-82
2020/12/19 06:16:19;;;;;;;6.90;6.20;;;12.40;99.90;;;;;;5076206;28;20214;-82
2020/12/19 06:19:02;;;;;;;6.75;6.22;;;12.40;99.90;;;;;;5076074;28;20199;-82
2020/12/19 06:21:31;;;;;;;7.43;6.72;;;12.30;99.90;;;;;;5076219;28;20660;-82
2020/12/19 06:23:57;;;;;;;8.80;7.40;;;12.30;99.90;;;;;;5076326;28;20202;-82
2020/12/19 06:26:35;;;;;;;8.00;7.20;;;12.20;99.90;;;;;;5075923;28;20250;-82
2020/12/19 06:29:02;;;;;;;7.78;7.03;;;11.90;99.90;;;;;;5076214;28;20227;-82
2020/12/19 06:31:28;;;;;;;7.18;6.47;;;11.90;99.90;;;;;;5076048;28;20198;-82
2020/12/19 06:33:55;;;;;;;6.97;6.30;;;11.90;99.90;;;;;;5075965;28;20558;-81
2020/12/19 06:36:24;;;;;;;10.98;7.03;;;12.10;99.90;;;;;;5075541;28;20201;-82
2020/12/19 06:38:54;;;;;;;8.43;7.63;;;12.10;99.90;;;;;;5075891;28;20198;-82
2020/12/19 06:41:41;;;;;;;8.05;7.25;;;12.10;99.90;;;;;;5075649;28;20237;-82
2020/12/19 06:44:09;;;;;;;8.27;7.47;;;12.00;99.90;;;;;;5075860;28;20205;-82
2020/12/19 06:46:36;;;;;;;7.93;7.07;;;11.90;99.90;;;;;;5075462;28;20198;-82
2020/12/19 06:49:30;;;;;;;7.70;6.85;;;12.00;99.90;;;;;;5075614;28;20220;-82
2020/12/19 06:51:58;;;;;;;8.63;7.70;;;12.10;99.90;;;;;;5075798;28;20384;-82
2020/12/19 06:54:29;;;;;;;9.38;6.50;;;12.30;99.90;;;;;;5075550;28;20198;-81
2020/12/19 06:56:56;;;;;;;15.18;7.45;;;12.30;99.90;;;;;;5075186;28;20221;-82
2020/12/19 06:59:23;;;;;;;8.30;7.38;;;12.10;99.90;;;;;;5075317;28;20202;-82
2020/12/19 07:01:50;;;;;;;10.52;7.85;;;12.00;99.90;;;;;;5075272;28;20197;-81
2020/12/19 07:04:32;;;;;;;8.55;6.80;;;12.00;99.90;;;;;;5075348;28;20523;-81
2020/12/19 07:07:03;;;;;;;9.40;6.43;;;12.10;99.90;;;;;;5075069;28;20272;-82
2020/12/19 07:09:30;;;;;;;8.27;7.38;;;12.20;99.90;;;;;;5075062;28;20194;-81
2020/12/19 07:11:56;;;;;;;8.57;7.38;;;12.30;99.90;;;;;;5074984;28;20292;-82
2020/12/19 07:14:23;;;;;;;8.32;7.43;;;12.30;99.90;;;;;;5075002;28;20194;-82
2020/12/19 07:16:50;;;;;;;7.78;7.05;;;12.20;99.90;;;;;;5075109;28;20194;-82
2020/12/19 07:19:24;;;;;;;8.00;7.20;;;12.30;99.90;;;;;;5074869;28;20571;-82
2020/12/19 07:21:51;;;;;;;8.25;7.28;;;12.30;99.90;;;;;;5074899;28;20597;-82
2020/12/19 07:24:17;;;;;;;11.27;8.35;;;12.40;99.90;;;;;;5074494;28;20771;-82
2020/12/19 07:26:45;;;;;;;8.18;7.38;;;12.40;99.90;;;;;;5074825;28;20667;-82
2020/12/19 07:29:16;;;;;;;10.60;7.15;;;12.40;99.90;;;;;;5074832;28;20194;-82
2020/12/19 07:31:46;;;;;;;9.95;7.75;;;12.40;99.90;;;;;;5074840;28;20252;-82
2020/12/19 07:34:13;;;;;;;11.43;9.10;;;12.30;99.90;;;;;;5074941;28;20201;-82
2020/12/19 07:36:40;;;;;;;10.85;8.20;;;12.30;99.90;;;;;;5074570;28;20198;-82
2020/12/19 07:39:08;;;;;;;9.93;8.00;;;12.30;99.90;;;;;;5074554;28;20198;-82
2020/12/19 07:41:35;;;;;;;12.23;8.80;;;12.40;99.90;;;;;;5074566;28;20699;-82
2020/12/19 07:44:17;;;;;;;9.18;7.03;;;12.40;99.90;;;;;;5074489;28;20653;-82
2020/12/19 07:46:55;;;;;;;10.32;8.02;;;12.40;99.90;;;;;;5072496;28;20198;-82
2020/12/19 07:49:36;;;;;;;9.00;8.05;;;12.40;99.90;;;;;;5074619;28;20198;-82
2020/12/19 07:52:08;;;;;;;8.32;7.53;;;12.20;99.90;;;;;;5074299;28;20200;-82
2020/12/19 07:54:34;;;;;;;9.07;7.75;;;12.30;99.90;;;;;;5074264;28;20190;-82
2020/12/19 07:57:02;;;;;;;10.52;7.60;;;12.30;99.90;;;;;;5074064;28;20233;-81
2020/12/19 07:59:29;;;;;;;11.48;8.05;;;12.40;99.90;;;;;;5074086;28;20722;-81
2020/12/19 08:01:56;;;;;;;10.70;8.15;;;12.40;99.90;;;;;;5074003;28;20280;-82
2020/12/19 08:04:22;;;;;;;9.65;8.13;;;12.50;99.90;;;;;;5074195;28;20198;-81
2020/12/19 08:06:49;;;;;;;8.70;7.80;;;12.70;99.90;;;;;;5074010;28;20195;-82
2020/12/19 08:09:19;;;;;;;9.63;7.20;;;12.70;99.90;;;;;;5073776;28;20195;-81
2020/12/19 08:11:46;;;;;;;11.40;7.40;;;12.70;99.90;;;;;;5073704;28;20210;-81
2020/12/19 08:14:15;;;;;;;12.63;7.63;;;12.50;99.90;;;;;;5073961;28;20201;-82
2020/12/19 08:16:43;;;;;;;9.48;8.40;;;12.50;99.90;;;;;;5073923;28;20276;-81
2020/12/19 08:19:11;;;;;;;9.32;7.38;;;12.40;99.90;;;;;;5073724;28;20198;-82
2020/12/19 08:21:38;;;;;;;9.57;6.95;;;12.50;99.90;;;;;;5073729;28;20256;-81
2020/12/19 08:24:05;;;;;;;8.18;7.45;;;12.60;99.90;;;;;;5073635;28;20202;-81
2020/12/19 08:26:32;;;;;;;8.20;7.38;;;12.50;99.90;;;;;;5073862;28;20198;-81
2020/12/19 08:29:03;;;;;;;8.40;7.10;;;12.60;99.90;;;;;;5073708;28;20734;-81
2020/12/19 08:31:30;;;;;;;11.55;8.13;;;12.60;99.90;;;;;;5073553;28;20193;-82
2020/12/19 08:33:57;;;;;;;8.65;7.57;;;12.50;99.90;;;;;;5073595;28;20657;-81
2020/12/19 08:36:24;;;;;;;7.70;6.90;;;12.60;99.90;;;;;;5072289;28;20702;-81
2020/12/19 08:38:50;;;;;;;7.45;6.30;;;12.60;99.90;;;;;;5073579;28;20198;-81
2020/12/19 08:41:20;;;;;;;8.00;7.20;;;12.70;99.90;;;;;;5073354;28;20225;-81
2020/12/19 08:43:46;;;;;;;9.32;6.85;;;12.80;99.90;;;;;;5073358;28;20198;-81
2020/12/19 08:46:14;;;;;;;8.65;7.75;;;12.80;99.90;;;;;;5073616;28;20198;-82
2020/12/19 08:48:41;;;;;;;7.30;6.70;;;12.70;99.90;;;;;;5073410;28;20391;-81
2020/12/19 08:51:09;;;;;;;7.35;6.30;;;12.70;99.90;;;;;;5073205;28;20194;-82
2020/12/19 08:53:36;;;;;;;8.68;6.28;;;12.90;99.90;;;;;;5073357;28;20195;-82
2020/12/19 08:56:13;;;;;;;7.97;7.18;;;12.90;99.90;;;;;;5072916;28;20321;-81
2020/12/19 08:58:40;;;;;;;10.60;7.40;;;13.00;99.90;;;;;;5073104;28;20201;-81
2020/12/19 09:01:14;;;;;;;8.93;6.88;;;13.00;99.90;;;;;;5073178;28;20205;-82
2020/12/19 09:03:40;;;;;;;9.40;7.20;;;13.00;99.90;;;;;;5073229;28;20205;-81
2020/12/19 09:06:08;;;;;;;7.18;6.47;;;12.90;99.90;;;;;;5073268;28;20593;-81
2020/12/19 09:08:37;;;;;;;8.52;6.85;;;13.00;99.90;;;;;;5073155;28;20247;-81
2020/12/19 09:11:04;;;;;;;8.55;6.72;;;13.00;99.90;;;;;;5073086;28;20221;-82
2020/12/19 09:13:31;;;;;;;7.00;6.20;;;13.10;99.90;;;;;;5073070;28;20672;-81
2020/12/19 09:16:07;;;;;;;7.68;6.90;;;13.10;99.90;;;;;;5073052;28;20194;-81
2020/12/19 09:18:35;;;;;;;8.48;6.70;;;13.00;99.90;;;;;;5073059;28;20201;-81
2020/12/19 09:21:03;;;;;;;7.25;6.55;;;12.90;99.90;;;;;;5072823;28;20199;-81
2020/12/19 09:23:30;;;;;;;6.65;5.90;;;13.10;99.90;;;;;;5072273;28;20263;-82
2020/12/19 09:25:58;;;;;;;6.07;5.57;;;13.20;99.90;;;;;;5073266;28;20186;-81
2020/12/19 09:28:25;;;;;;;9.38;6.57;;;13.30;99.90;;;;;;5091033;28;20564;-81
2020/12/19 09:30:52;;;;;;;6.05;5.55;;;13.40;99.90;;;;;;5092530;28;20601;-81
2020/12/19 09:33:19;;;;;;;7.80;7.05;;;13.30;99.90;;;;;;5092979;28;20201;-80
2020/12/19 09:35:45;;;;;;;7.57;6.47;;;13.40;99.90;;;;;;5093125;28;20210;-80
2020/12/19 09:38:12;;;;;;;8.80;5.85;;;13.40;99.90;;;;;;5089528;28;20201;-80
2020/12/19 09:40:39;;;;;;;8.23;6.50;;;13.50;99.90;;;;;;5074439;28;20191;-80
2020/12/19 09:43:06;;;;;;;7.30;6.10;;;13.40;99.90;;;;;;5085416;28;20263;-80
2020/12/19 09:45:34;;;;;;;7.20;6.53;;;13.40;99.90;;;;;;5072808;28;20277;-80
2020/12/19 09:48:00;;;;;;;8.20;6.45;;;13.40;99.90;;;;;;5073467;28;20244;-81
2020/12/19 09:50:27;;;;;;;8.77;7.30;;;13.60;99.90;;;;;;5076566;28;20216;-80
2020/12/19 09:52:54;;;;;;;6.65;5.93;;;13.50;99.90;;;;;;5076355;28;20194;-80
2020/12/19 09:55:20;;;;;;;6.95;6.25;;;13.50;99.90;;;;;;5076366;28;20194;-80
2020/12/19 09:57:47;;;;;;;9.40;5.55;;;13.70;99.90;;;;;;5077909;28;20587;-82
2020/12/19 10:00:15;;;;;;;6.55;5.85;;;13.80;99.90;;;;;;5091355;28;20205;-82
2020/12/19 10:02:42;;;;;;;8.32;5.30;;;14.00;99.90;;;;;;5083343;28;20209;-81
2020/12/19 10:05:09;;;;;;;6.38;5.75;;;14.10;99.90;;;;;;5074895;28;20206;-81
2020/12/19 10:07:36;;;;;;;12.82;6.85;;;14.00;99.90;;;;;;5074793;28;20309;-81
2020/12/19 10:10:04;;;;;;;6.03;5.53;;;13.90;99.90;;;;;;5074926;28;20217;-81
2020/12/19 10:12:30;;;;;;;6.72;5.90;;;13.90;99.90;;;;;;5075896;28;20218;-81
2020/12/19 10:14:56;;;;;;;7.35;5.57;;;13.90;99.90;;;;;;5075968;28;20653;-81
2020/12/19 10:17:24;;;;;;;6.88;6.18;;;13.90;99.90;;;;;;5075973;28;20649;-81
2020/12/19 10:19:50;;;;;;;5.55;4.88;;;13.90;99.90;;;;;;5075721;28;20202;-81
2020/12/19 10:22:16;;;;;;;7.55;5.78;;;13.90;99.90;;;;;;5075996;28;20198;-81
2020/12/19 10:24:43;;;;;;;7.30;4.93;;;13.70;99.90;;;;;;5076018;28;20191;-81
2020/12/19 10:27:09;;;;;;;5.85;5.18;;;13.80;99.90;;;;;;5075898;28;20190;-81
2020/12/19 10:29:36;;;;;;;5.47;4.97;;;13.90;99.90;;;;;;5075794;28;20289;-82
2020/12/19 10:32:06;;;;;;;5.97;4.78;;;14.00;99.90;;;;;;5076272;28;20198;-83
2020/12/19 10:34:33;;;;;;;5.30;4.80;;;14.10;99.90;;;;;;5076500;28;20243;-83
2020/12/19 10:36:59;;;;;;;5.45;4.95;;;14.10;99.90;;;;;;5075955;28;20197;-83
2020/12/19 10:39:25;;;;;;;5.78;5.18;;;14.30;99.90;;;;;;5075736;28;20649;-83
2020/12/19 10:41:52;;;;;;;4.82;4.30;;;14.40;99.90;;;;;;5075460;28;20238;-83
2020/12/19 10:44:18;;;;;;;7.43;5.05;;;14.30;99.90;;;;;;5075950;28;20206;-84
2020/12/19 10:46:44;;;;;;;4.38;3.97;;;14.10;99.90;;;;;;5075897;28;20190;-83
2020/12/19 10:49:11;;;;;;;6.30;4.07;;;14.30;99.90;;;;;;5075635;28;20658;-83
2020/12/19 10:51:38;;;;;;;8.07;5.20;;;14.40;99.90;;;;;;5075365;28;20547;-82
2020/12/19 10:54:04;;;;;;;6.65;5.18;;;14.60;99.90;;;;;;5075174;28;20256;-83
2020/12/19 10:56:30;;;;;;;9.43;5.18;;;14.50;99.90;;;;;;5075445;28;20226;-82
2020/12/19 10:58:57;;;;;;;4.45;4.05;;;14.40;99.90;;;;;;5074199;28;20202;-82
2020/12/19 11:01:23;;;;;;;5.70;4.35;;;14.60;99.90;;;;;;5074888;28;20201;-83
2020/12/19 11:03:49;;;;;;;5.30;4.80;;;14.60;99.90;;;;;;5074876;28;20293;-82
2020/12/19 11:06:20;;;;;;;5.40;4.68;;;14.70;99.90;;;;;;5074765;28;20198;-82
2020/12/19 11:08:48;;;;;;;5.68;4.10;;;14.60;99.90;;;;;;5074633;28;20365;-82
2020/12/19 11:11:16;;;;;;;5.27;4.53;;;14.70;99.90;;;;;;5074697;28;20287;-82
2020/12/19 11:13:43;;;;;;;4.07;3.65;;;14.60;99.90;;;;;;5074352;28;20474;-83
2020/12/19 11:16:09;;;;;;;5.20;4.63;;;14.70;99.90;;;;;;5075032;28;20705;-82
2020/12/19 11:18:35;;;;;;;4.35;3.95;;;14.80;99.90;;;;;;5075039;28;20494;-83
2020/12/19 11:21:04;;;;;;;4.33;3.93;;;14.80;99.90;;;;;;5074968;28;20657;-82
2020/12/19 11:23:30;;;;;;;4.68;4.00;;;14.80;99.90;;;;;;5074889;28;20942;-82
2020/12/19 11:25:57;;;;;;;4.90;4.40;;;14.80;99.90;;;;;;5075147;28;20194;-83
2020/12/19 11:28:23;;;;;;;5.27;4.87;;;14.90;99.90;;;;;;5074822;28;20218;-82
2020/12/19 11:30:50;;;;;;;5.18;4.20;;;14.90;99.90;;;;;;5074876;28;20440;-83
2020/12/19 11:33:16;;;;;;;4.75;4.00;;;14.90;99.90;;;;;;5074866;28;20205;-83
2020/12/19 11:35:42;;;;;;;4.83;4.27;;;14.90;99.90;;;;;;5074869;28;20698;-83
2020/12/19 11:38:08;;;;;;;5.30;4.33;;;15.00;99.90;;;;;;5074701;28;20451;-83
2020/12/19 11:40:35;;;;;;;5.93;4.05;;;15.00;99.90;;;;;;5074599;28;20456;-83
2020/12/19 11:43:02;;;;;;;4.40;4.00;;;14.90;99.90;;;;;;5074527;28;20194;-82
2020/12/19 11:45:28;;;;;;;4.40;4.00;;;14.80;99.90;;;;;;5074500;28;20463;-83
2020/12/19 11:47:54;;;;;;;5.70;4.10;;;15.00;99.90;;;;;;5074545;28;20488;-82
2020/12/19 11:50:21;;;;;;;7.30;5.37;;;15.00;99.90;;;;;;5073995;28;20449;-82
2020/12/19 11:52:47;;;;;;;6.95;4.30;;;15.10;99.90;;;;;;5073539;28;20428;-83
2020/12/19 11:55:13;;;;;;;5.43;3.50;;;15.30;99.90;;;;;;5074396;28;20657;-83
2020/12/19 11:57:40;;;;;;;9.37;3.57;;;15.20;99.90;;;;;;5073891;28;20484;-83
2020/12/19 12:00:07;;;;;;;4.40;4.00;;;15.20;99.90;;;;;;5074048;28;20468;-83
2020/12/19 12:02:33;;;;;;;3.50;3.20;;;15.20;99.90;;;;;;5074145;28;20446;-82
2020/12/19 12:05:00;;;;;;;3.97;3.47;;;15.30;99.90;;;;;;5074139;28;20474;-82
2020/12/19 12:07:26;;;;;;;3.33;2.50;;;15.30;99.90;;;;;;5073890;28;20476;-83
2020/12/19 12:09:52;;;;;;;4.90;3.40;;;15.30;99.90;;;;;;5074306;28;20452;-82
2020/12/19 12:12:18;;;;;;;3.97;3.67;;;15.30;99.90;;;;;;5074711;28;20475;-84
2020/12/19 12:14:45;;;;;;;3.40;2.73;;;15.10;99.90;;;;;;5074779;28;20448;-85
2020/12/19 12:17:12;;;;;;;3.65;2.80;;;15.10;99.90;;;;;;5080387;28;20487;-83
2020/12/19 12:19:38;;;;;;;2.90;2.70;;;15.20;99.90;;;;;;5086141;28;20244;-84
2020/12/19 12:22:05;;;;;;;3.30;2.77;;;15.20;99.90;;;;;;5093072;28;20201;-81
2020/12/19 12:24:31;;;;;;;3.40;3.00;;;15.30;99.90;;;;;;5093133;28;20483;-81
2020/12/19 12:26:58;;;;;;;3.60;2.73;;;15.30;99.90;;;;;;5092566;28;20194;-81
2020/12/19 12:29:24;;;;;;;3.80;2.65;;;15.40;99.90;;;;;;5093990;28;20548;-82
2020/12/19 12:31:50;;;;;;;5.27;3.10;;;15.20;99.90;;;;;;5093667;28;20194;-81
2020/12/19 12:34:18;;;;;;;3.40;2.70;;;15.20;99.90;;;;;;5093798;28;20444;-81
2020/12/19 12:36:44;;;;;;;2.80;2.30;;;15.20;99.90;;;;;;5093482;28;20447;-81
2020/12/19 12:39:10;;;;;;;3.28;2.70;;;15.30;99.90;;;;;;5092385;28;20446;-81
2020/12/19 12:41:36;;;;;;;4.15;3.28;;;15.30;99.90;;;;;;5091818;28;20224;-81
2020/12/19 12:44:03;;;;;;;2.70;2.50;;;15.30;99.90;;;;;;5093583;28;20190;-81
2020/12/19 12:46:29;;;;;;;4.60;3.22;;;15.40;99.90;;;;;;5093750;28;20196;-81